Time;durP1;ratioP1;P1;durP2;ratioP2;P2;SDS_P1;SDS_P2;PMS_P1;PMS_P2;Temp;Humidity;BMP_temperature;BMP_pressure;BME280_temperature;BME280_humidity;BME280_pressure;Samples;Min_cycle;Max_cycle;Signal;HPM_P1;HPM_P2
2023/10/23 00:01:38;;;;;;;4.82;1.80;;;;;;;11.49;91.43;100733.09;7398415;19;20019;-70
2023/10/23 00:04:07;;;;;;;9.98;2.08;;;;;;;11.45;91.43;100732.31;7396357;19;20021;-69
2023/10/23 00:06:36;;;;;;;4.25;1.88;;;;;;;11.44;91.44;100741.06;7398122;19;20078;-70
2023/10/23 00:09:05;;;;;;;6.90;1.95;;;;;;;11.42;91.49;100745.50;7398126;19;20027;-69
2023/10/23 00:11:36;;;;;;;5.00;2.00;;;;;;;11.40;91.65;100749.94;7395573;19;20007;-69
2023/10/23 00:14:04;;;;;;;6.72;2.50;;;;;;;11.37;91.74;100750.00;7398015;19;20086;-70
2023/10/23 00:16:33;;;;;;;3.65;1.85;;;;;;;11.34;91.80;100755.34;7395616;19;20010;-69
2023/10/23 00:19:01;;;;;;;4.25;1.92;;;;;;;11.32;91.75;100751.88;7394715;19;20074;-68
2023/10/23 00:21:30;;;;;;;6.38;2.28;;;;;;;11.29;92.05;100751.97;7399158;19;20028;-69
2023/10/23 00:23:58;;;;;;;4.18;1.63;;;;;;;11.24;91.98;100750.31;7401708;19;20023;-69
2023/10/23 00:26:27;;;;;;;6.63;1.75;;;;;;;11.21;92.11;100755.66;7400426;19;20035;-70
2023/10/23 00:28:58;;;;;;;9.50;2.17;;;;;;;11.20;92.21;100750.44;7398071;19;20010;-69
2023/10/23 00:31:26;;;;;;;5.45;1.70;;;;;;;11.18;92.47;100758.31;7397030;19;20018;-68
2023/10/23 00:33:54;;;;;;;3.20;1.80;;;;;;;11.15;92.47;100755.78;7397235;19;20070;-69
2023/10/23 00:36:36;;;;;;;4.78;2.83;;;;;;;11.14;92.72;100759.31;7395355;19;20082;-69
2023/10/23 00:39:05;;;;;;;5.03;1.92;;;;;;;11.11;92.69;100748.88;7395728;19;20059;-70
2023/10/23 00:41:33;;;;;;;7.90;2.72;;;;;;;11.09;92.90;100745.44;7396665;19;20019;-69
2023/10/23 00:44:04;;;;;;;5.00;1.70;;;;;;;11.08;93.05;100755.06;7397023;19;20027;-69
2023/10/23 00:46:33;;;;;;;5.30;1.80;;;;;;;11.06;93.07;100762.13;7397346;19;20425;-68
2023/10/23 00:49:02;;;;;;;5.78;2.50;;;;;;;11.05;93.06;100757.75;7396399;19;20013;-70
2023/10/23 00:51:32;;;;;;;3.83;1.95;;;;;;;11.02;93.16;100746.47;7396024;19;20070;-70
2023/10/23 00:54:01;;;;;;;5.57;2.15;;;;;;;10.99;93.28;100754.44;7396266;19;20380;-69
2023/10/23 00:56:30;;;;;;;5.35;2.08;;;;;;;11.00;93.37;100764.03;7396530;19;20014;-70
2023/10/23 00:59:00;;;;;;;7.78;2.40;;;;;;;10.98;93.65;100764.06;7394206;19;20533;-70
2023/10/23 01:01:32;;;;;;;5.55;2.17;;;;;;;10.97;93.60;100756.22;7396325;19;20077;-70
2023/10/23 01:04:03;;;;;;;4.38;2.13;;;;;;;10.97;93.83;100758.84;7394380;19;20431;-71
2023/10/23 01:06:32;;;;;;;7.70;2.20;;;;;;;10.95;93.93;100761.50;7396718;19;20014;-70
2023/10/23 01:09:01;;;;;;;4.35;2.00;;;;;;;10.94;94.01;100762.41;7396169;19;20010;-70
2023/10/23 01:11:29;;;;;;;4.47;2.33;;;;;;;10.92;94.14;100770.31;7395535;19;20074;-70
2023/10/23 01:13:58;;;;;;;6.97;1.92;;;;;;;10.91;94.25;100770.34;7396409;19;20018;-70
2023/10/23 01:16:26;;;;;;;3.90;1.90;;;;;;;10.90;94.15;100772.09;7395883;19;20014;-69
2023/10/23 01:18:57;;;;;;;6.13;2.38;;;;;;;10.89;94.28;100765.16;7393741;19;20418;-69
2023/10/23 01:21:26;;;;;;;3.70;2.08;;;;;;;10.87;94.43;100773.94;7396183;19;20066;-70
2023/10/23 01:23:56;;;;;;;5.72;2.33;;;;;;;10.84;94.46;100767.00;7395717;19;20033;-70
2023/10/23 01:26:27;;;;;;;6.30;2.20;;;;;;;10.84;94.54;100777.50;7394151;19;20013;-70
2023/10/23 01:29:18;;;;;;;5.57;1.95;;;;;;;10.81;94.54;100768.84;7395517;19;20011;-69
2023/10/23 01:31:46;;;;;;;4.72;2.15;;;;;;;10.78;94.76;100775.03;7392615;19;20035;-69
2023/10/23 01:34:15;;;;;;;5.82;2.55;;;;;;;10.76;94.81;100775.03;7395406;19;20070;-70
2023/10/23 01:36:56;;;;;;;6.75;2.40;;;;;;;10.73;94.92;100769.88;7393967;19;20564;-69
2023/10/23 01:39:25;;;;;;;4.57;2.03;;;;;;;10.71;94.95;100765.53;7395037;19;20063;-69
2023/10/23 01:41:56;;;;;;;6.55;2.60;;;;;;;10.68;95.20;100770.84;7394738;19;20078;-69
2023/10/23 01:44:24;;;;;;;9.57;2.33;;;;;;;10.66;95.25;100770.03;7395271;19;20022;-69
2023/10/23 01:46:53;;;;;;;8.10;2.35;;;;;;;10.64;95.61;100770.06;7393278;19;20014;-70
2023/10/23 01:49:21;;;;;;;7.28;3.05;;;;;;;10.61;95.71;100770.13;7394656;19;20074;-69
2023/10/23 01:51:50;;;;;;;5.40;2.85;;;;;;;10.63;95.64;100775.34;7393967;19;20507;-70
2023/10/23 01:54:18;;;;;;;5.28;2.22;;;;;;;10.59;95.78;100772.78;7394934;19;20070;-69
2023/10/23 01:56:47;;;;;;;9.23;3.10;;;;;;;10.58;95.89;100770.22;7396482;19;20074;-69
2023/10/23 01:59:18;;;;;;;6.13;2.50;;;;;;;10.56;95.92;100770.25;7398193;19;20011;-69
2023/10/23 02:01:46;;;;;;;8.25;2.83;;;;;;;10.54;95.94;100774.66;7396987;19;20419;-70
2023/10/23 02:04:15;;;;;;;5.03;2.67;;;;;;;10.53;96.09;100777.31;7395468;19;20480;-69
2023/10/23 02:06:43;;;;;;;9.43;2.88;;;;;;;10.51;96.14;100772.06;7394355;19;20078;-69
2023/10/23 02:09:12;;;;;;;8.32;2.88;;;;;;;10.48;96.20;100777.41;7394529;19;20083;-68
2023/10/23 02:11:40;;;;;;;5.90;2.58;;;;;;;10.46;96.38;100773.06;7393878;19;20015;-68
2023/10/23 02:14:09;;;;;;;6.93;2.83;;;;;;;10.43;96.45;100777.47;7394404;19;20428;-69
2023/10/23 02:16:40;;;;;;;5.45;2.72;;;;;;;10.40;96.58;100777.56;7392073;19;20074;-69
2023/10/23 02:19:08;;;;;;;4.15;2.65;;;;;;;10.38;96.60;100778.47;7392316;19;20357;-69
2023/10/23 02:21:49;;;;;;;7.97;2.78;;;;;;;10.34;96.82;100777.66;7394245;19;20023;-69
2023/10/23 02:24:24;;;;;;;7.07;2.90;;;;;;;10.31;96.79;100772.44;7394539;19;20029;-68
2023/10/23 02:26:54;;;;;;;5.82;2.88;;;;;;;10.28;96.95;100783.88;7393643;19;20074;-69
2023/10/23 02:29:22;;;;;;;6.18;2.63;;;;;;;10.25;97.13;100780.47;7394351;19;20017;-69
2023/10/23 02:31:53;;;;;;;8.00;2.90;;;;;;;10.22;97.16;100781.41;7393496;19;20070;-69
2023/10/23 02:34:22;;;;;;;6.10;2.78;;;;;;;10.20;97.37;100780.53;7393184;19;20018;-69
2023/10/23 02:36:50;;;;;;;9.90;3.63;;;;;;;10.18;97.53;100784.09;7392656;19;20070;-69
2023/10/23 02:39:19;;;;;;;8.82;3.30;;;;;;;10.15;97.47;100792.88;7393686;19;20386;-69
2023/10/23 02:41:47;;;;;;;6.40;3.05;;;;;;;10.13;97.54;100791.19;7394236;19;20078;-69
2023/10/23 02:44:16;;;;;;;6.93;3.03;;;;;;;10.13;97.86;100801.66;7400879;19;20015;-69
2023/10/23 02:46:44;;;;;;;5.32;3.60;;;;;;;10.09;97.97;100799.09;7400590;19;20015;-69
2023/10/23 02:49:16;;;;;;;9.27;3.25;;;;;;;10.09;98.05;100808.72;7400763;19;20014;-68
2023/10/23 02:51:44;;;;;;;7.45;3.05;;;;;;;10.08;98.01;100807.00;7398322;19;20019;-69
2023/10/23 02:54:13;;;;;;;8.43;3.25;;;;;;;10.05;98.30;100813.16;7397647;19;20548;-69
2023/10/23 02:56:41;;;;;;;5.40;3.35;;;;;;;10.06;98.32;100814.88;7399912;19;20010;-70
2023/10/23 02:59:10;;;;;;;8.07;3.60;;;;;;;10.05;98.38;100812.31;7397360;19;20094;-69
2023/10/23 03:01:38;;;;;;;7.95;3.67;;;;;;;10.04;98.59;100821.06;7397859;19;20094;-69
2023/10/23 03:04:07;;;;;;;9.85;4.25;;;;;;;10.04;98.54;100821.06;7400112;19;20081;-69
2023/10/23 03:06:38;;;;;;;6.82;4.00;;;;;;;10.05;98.74;100828.03;7399833;19;20066;-70
2023/10/23 03:09:07;;;;;;;10.00;4.22;;;;;;;10.03;98.81;100825.41;7400289;19;20074;-69
2023/10/23 03:11:35;;;;;;;9.82;3.58;;;;;;;10.05;98.88;100830.66;7399653;19;20010;-69
2023/10/23 03:14:11;;;;;;;7.38;3.35;;;;;;;10.06;98.86;100837.59;7399740;19;20022;-69
2023/10/23 03:16:39;;;;;;;7.25;3.72;;;;;;;10.05;98.87;100839.38;7398963;19;20010;-69
2023/10/23 03:19:08;;;;;;;9.77;3.75;;;;;;;10.06;99.02;100843.72;7397406;19;20015;-69
2023/10/23 03:21:39;;;;;;;7.13;3.70;;;;;;;10.07;99.00;100837.59;7397369;19;20022;-69
2023/10/23 03:24:08;;;;;;;8.80;3.78;;;;;;;10.07;98.99;100844.56;7399867;19;20029;-69
2023/10/23 03:26:37;;;;;;;6.78;3.67;;;;;;;10.07;99.17;100850.69;7396947;19;20070;-70
2023/10/23 03:29:06;;;;;;;6.10;3.83;;;;;;;10.07;99.27;100847.19;7399865;19;20485;-70
2023/10/23 03:31:41;;;;;;;11.02;3.97;;;;;;;10.08;99.21;100848.94;7398900;19;20010;-69
2023/10/23 03:34:10;;;;;;;9.30;3.63;;;;;;;10.08;99.22;100843.69;7399698;19;20086;-69
2023/10/23 03:36:41;;;;;;;7.25;3.53;;;;;;;10.09;99.42;100845.44;7398275;19;20085;-70
2023/10/23 03:39:09;;;;;;;9.73;3.70;;;;;;;10.10;99.49;100853.25;7397278;19;20035;-69
2023/10/23 03:41:38;;;;;;;7.15;3.92;;;;;;;10.11;99.56;100846.28;7396666;19;20111;-69
2023/10/23 03:44:08;;;;;;;7.88;3.95;;;;;;;10.10;99.58;100850.63;7398712;19;20011;-69
2023/10/23 03:46:36;;;;;;;8.57;3.70;;;;;;;10.12;99.58;100847.97;7396537;19;20041;-69
2023/10/23 03:49:05;;;;;;;6.70;3.30;;;;;;;10.11;99.69;100847.13;7398641;19;20497;-68
2023/10/23 03:51:33;;;;;;;5.53;3.25;;;;;;;10.15;99.78;100853.19;7398875;19;20007;-69
2023/10/23 03:54:04;;;;;;;20.35;11.75;;;;;;;10.16;99.78;100851.41;7394294;19;20319;-68
2023/10/23 03:56:33;;;;;;;16.27;10.43;;;;;;;10.17;99.68;100856.63;7396136;19;20027;-68
2023/10/23 03:59:02;;;;;;;9.55;4.88;;;;;;;10.16;100.00;100854.91;7398340;19;20078;-69
2023/10/23 04:01:31;;;;;;;6.13;3.67;;;;;;;10.17;99.73;100856.63;7398540;19;20014;-69
2023/10/23 04:03:59;;;;;;;6.53;3.47;;;;;;;10.17;99.84;100861.88;7397472;19;20086;-69
2023/10/23 04:06:28;;;;;;;6.63;3.85;;;;;;;10.17;99.88;100863.63;7397732;19;20397;-69
2023/10/23 04:08:56;;;;;;;11.05;4.30;;;;;;;10.18;99.85;100860.13;7395413;19;20085;-69
2023/10/23 04:11:27;;;;;;;8.98;4.40;;;;;;;10.17;99.93;100861.88;7395744;19;20079;-69
2023/10/23 04:13:56;;;;;;;6.68;3.97;;;;;;;10.15;100.00;100858.44;7395623;19;20070;-69
2023/10/23 04:16:24;;;;;;;12.35;4.30;;;;;;;10.16;99.92;100868.03;7397489;19;20020;-69
2023/10/23 04:18:53;;;;;;;7.97;3.78;;;;;;;10.17;100.00;100868.88;7395320;19;20081;-69
2023/10/23 04:21:23;;;;;;;13.13;4.72;;;;;;;10.16;100.00;100856.66;7397220;19;20027;-68
2023/10/23 04:23:52;;;;;;;7.20;3.95;;;;;;;10.15;100.00;100861.03;7396973;19;20016;-69
2023/10/23 04:26:20;;;;;;;7.18;3.83;;;;;;;10.16;100.00;100867.16;7395202;19;20356;-69
2023/10/23 04:28:51;;;;;;;8.38;3.67;;;;;;;10.16;100.00;100875.88;7395210;19;20086;-70
2023/10/23 04:31:20;;;;;;;9.57;3.88;;;;;;;10.16;100.00;100868.03;7396905;19;20023;-69
2023/10/23 04:33:48;;;;;;;9.02;4.25;;;;;;;10.16;100.00;100860.16;7395445;19;20027;-69
2023/10/23 04:36:17;;;;;;;13.00;4.55;;;;;;;10.17;100.00;100861.00;7396633;19;20019;-69
2023/10/23 04:38:45;;;;;;;8.70;4.15;;;;;;;10.17;100.00;100872.34;7394050;19;20033;-69
2023/10/23 04:41:14;;;;;;;13.35;4.32;;;;;;;10.19;100.00;100886.31;7394681;19;20031;-70
2023/10/23 04:43:42;;;;;;;8.85;4.13;;;;;;;10.20;100.00;100880.19;7394684;19;20078;-69
2023/10/23 04:46:13;;;;;;;9.25;4.72;;;;;;;10.18;100.00;100875.84;7396217;19;20558;-69
2023/10/23 04:48:42;;;;;;;8.77;4.38;;;;;;;10.19;100.00;100881.06;7395245;19;20031;-69
2023/10/23 04:51:10;;;;;;;10.70;4.25;;;;;;;10.20;100.00;100887.19;7396021;19;20481;-69
2023/10/23 04:53:39;;;;;;;7.60;4.05;;;;;;;10.20;100.00;100884.56;7395008;19;20087;-70
2023/10/23 04:56:08;;;;;;;6.95;4.35;;;;;;;10.18;100.00;100873.22;7396594;19;20035;-69
2023/10/23 04:58:36;;;;;;;8.18;4.57;;;;;;;10.20;100.00;100884.56;7394643;19;20032;-69
2023/10/23 05:01:05;;;;;;;14.30;5.65;;;;;;;10.19;100.00;100883.69;7395535;19;20376;-70
2023/10/23 05:03:36;;;;;;;10.15;5.70;;;;;;;10.19;100.00;100888.94;7393923;19;20082;-69
2023/10/23 05:06:04;;;;;;;11.15;5.25;;;;;;;10.20;100.00;100889.81;7396325;19;20359;-69
2023/10/23 05:08:33;;;;;;;13.95;9.43;;;;;;;10.20;100.00;100895.91;7394207;19;20375;-69
2023/10/23 05:11:07;;;;;;;9.90;5.32;;;;;;;10.18;100.00;100895.06;7395695;19;20020;-68
2023/10/23 05:13:36;;;;;;;12.77;5.97;;;;;;;10.18;100.00;100896.84;7393966;19;20021;-70
2023/10/23 05:16:05;;;;;;;11.85;5.70;;;;;;;10.15;100.00;100897.75;7395385;19;20533;-68
2023/10/23 05:18:37;;;;;;;12.88;5.72;;;;;;;10.14;100.00;100896.00;7399239;19;20054;-70
2023/10/23 05:21:09;;;;;;;11.13;4.97;;;;;;;10.11;100.00;100896.09;7401347;19;20027;-69
2023/10/23 05:23:38;;;;;;;10.43;5.65;;;;;;;10.11;100.00;100896.09;7398843;19;20078;-69
2023/10/23 05:26:07;;;;;;;9.95;5.55;;;;;;;10.10;100.00;100899.59;7395210;19;20078;-69
2023/10/23 05:28:35;;;;;;;9.90;5.40;;;;;;;10.09;100.00;100903.09;7393457;19;20487;-69
2023/10/23 05:31:04;;;;;;;10.68;6.90;;;;;;;10.07;100.00;100897.00;7393674;19;20010;-69
2023/10/23 05:33:32;;;;;;;14.50;9.77;;;;;;;10.06;100.00;100908.38;7394366;19;20018;-69
2023/10/23 05:36:09;;;;;;;11.43;10.23;;;;;;;10.05;100.00;100911.91;7395362;19;20023;-69
2023/10/23 05:38:39;;;;;;;12.15;8.60;;;;;;;10.05;100.00;100914.53;7393433;19;20018;-69
2023/10/23 05:41:09;;;;;;;13.55;8.70;;;;;;;10.04;100.00;100915.41;7394299;19;20007;-69
2023/10/23 05:43:38;;;;;;;11.15;7.70;;;;;;;10.03;100.00;100914.53;7393329;19;20062;-69
2023/10/23 05:46:07;;;;;;;11.95;7.05;;;;;;;10.04;100.00;100915.41;7394629;19;20011;-70
2023/10/23 05:48:36;;;;;;;10.55;6.28;;;;;;;10.03;100.00;100916.31;7393239;19;20090;-69
2023/10/23 05:51:08;;;;;;;15.98;7.82;;;;;;;10.03;100.00;100919.78;7394370;19;20022;-69
2023/10/23 05:53:37;;;;;;;11.38;6.63;;;;;;;10.04;100.00;100931.16;7392238;19;20078;-69
2023/10/23 05:56:07;;;;;;;11.13;6.40;;;;;;;10.04;100.00;100928.53;7392557;19;20017;-70
2023/10/23 05:58:36;;;;;;;10.65;5.47;;;;;;;10.03;100.00;100927.66;7392648;19;20070;-69
2023/10/23 06:01:08;;;;;;;10.38;5.95;;;;;;;10.03;100.00;100926.78;7393857;19;20039;-69
2023/10/23 06:03:37;;;;;;;10.63;6.13;;;;;;;10.03;100.00;100929.41;7392776;19;20457;-67
2023/10/23 06:06:08;;;;;;;9.13;5.50;;;;;;;10.04;100.00;100936.41;7393658;19;20033;-68
2023/10/23 06:08:37;;;;;;;9.55;5.18;;;;;;;10.04;100.00;100937.25;7392321;19;20014;-67
2023/10/23 06:11:09;;;;;;;10.20;5.70;;;;;;;10.07;100.00;100949.44;7394074;19;20011;-68
2023/10/23 06:13:38;;;;;;;10.05;5.47;;;;;;;10.07;100.00;100954.69;7393430;19;20086;-69
2023/10/23 06:16:07;;;;;;;8.90;5.43;;;;;;;10.09;100.00;100951.13;7393602;19;20007;-68
2023/10/23 06:18:36;;;;;;;10.70;6.22;;;;;;;10.10;100.00;100952.03;7398000;19;20066;-70
2023/10/23 06:21:08;;;;;;;11.45;5.65;;;;;;;10.12;100.00;100958.09;7401386;19;20011;-70
2023/10/23 06:23:38;;;;;;;10.68;6.03;;;;;;;10.14;100.00;100961.56;7401714;19;20015;-69
2023/10/23 06:26:07;;;;;;;10.13;6.25;;;;;;;10.15;100.00;100952.81;7399048;19;20014;-69
2023/10/23 06:28:36;;;;;;;12.38;5.95;;;;;;;10.18;100.00;100959.75;7398148;19;20477;-69
2023/10/23 06:31:08;;;;;;;6.40;4.75;;;;;;;10.18;100.00;100962.38;7401264;19;20093;-68
2023/10/23 06:33:38;;;;;;;10.07;5.78;;;;;;;10.21;100.00;100968.44;7397858;19;20073;-68
2023/10/23 06:36:10;;;;;;;9.05;5.30;;;;;;;10.18;100.00;100958.00;7398279;19;20010;-69
2023/10/23 06:38:38;;;;;;;10.13;6.03;;;;;;;10.23;100.00;100955.31;7397076;19;20025;-68
2023/10/23 06:41:08;;;;;;;10.65;6.75;;;;;;;10.23;100.00;100964.00;7400062;19;20018;-69
2023/10/23 06:43:38;;;;;;;14.85;5.88;;;;;;;10.27;100.00;100970.09;7400699;19;20011;-69
2023/10/23 06:46:07;;;;;;;7.05;6.00;;;;;;;10.30;100.00;100967.44;7401177;19;20026;-68
2023/10/23 06:48:35;;;;;;;9.82;5.90;;;;;;;10.32;100.00;100957.75;7397662;19;20555;-68
2023/10/23 06:51:03;;;;;;;13.07;5.95;;;;;;;10.36;100.00;100958.59;7397260;19;20077;-69
2023/10/23 06:53:35;;;;;;;11.07;6.22;;;;;;;10.39;100.00;100964.66;7399790;19;20027;-69
2023/10/23 06:56:03;;;;;;;11.25;6.47;;;;;;;10.42;100.00;100964.59;7400476;19;20024;-69
2023/10/23 06:58:32;;;;;;;15.35;10.10;;;;;;;10.46;100.00;100957.53;7398151;19;20014;-69
2023/10/23 07:01:07;;;;;;;12.82;7.72;;;;;;;10.50;100.00;100961.88;7399840;19;20010;-69
2023/10/23 07:03:36;;;;;;;13.93;7.78;;;;;;;10.51;100.00;100955.69;7397864;19;20485;-69
2023/10/23 07:06:08;;;;;;;11.73;6.57;;;;;;;10.56;100.00;100964.38;7399870;19;20070;-70
2023/10/23 07:08:40;;;;;;;11.00;6.95;;;;;;;10.60;100.00;100954.66;7397668;19;20078;-69
2023/10/23 07:11:14;;;;;;;13.07;8.07;;;;;;;10.62;100.00;100962.53;7400176;19;20094;-70
2023/10/23 07:13:43;;;;;;;15.65;9.23;;;;;;;10.64;100.00;100964.25;7397796;19;20548;-69
2023/10/23 07:16:12;;;;;;;15.10;8.32;;;;;;;10.67;100.00;100968.56;7399185;19;20028;-69
2023/10/23 07:18:40;;;;;;;14.63;7.93;;;;;;;10.70;100.00;100964.13;7397027;19;20015;-69
2023/10/23 07:21:10;;;;;;;13.43;7.30;;;;;;;10.73;100.00;100965.81;7398399;19;20010;-71
2023/10/23 07:23:41;;;;;;;11.40;5.72;;;;;;;10.75;100.00;100962.28;7399940;19;20003;-68
2023/10/23 07:26:12;;;;;;;16.70;10.80;;;;;;;10.79;100.00;100964.84;7399783;19;20028;-69
2023/10/23 07:28:41;;;;;;;20.90;12.20;;;;;;;10.83;100.00;100967.38;7394641;19;20082;-69
2023/10/23 07:31:11;;;;;;;17.95;9.15;;;;;;;10.84;100.00;100976.09;7396512;19;20023;-69
2023/10/23 07:33:39;;;;;;;15.25;9.30;;;;;;;10.87;100.00;100978.69;7397656;19;20087;-69
2023/10/23 07:36:10;;;;;;;12.48;9.27;;;;;;;10.88;100.00;100983.00;7398868;19;20022;-69
2023/10/23 07:38:43;;;;;;;18.55;12.20;;;;;;;10.91;100.00;100988.22;7395944;19;20014;-69
2023/10/23 07:41:11;;;;;;;15.50;9.98;;;;;;;10.94;100.00;100995.19;7399269;19;20011;-70
2023/10/23 07:43:40;;;;;;;14.98;9.13;;;;;;;10.96;100.00;100990.78;7398320;19;20481;-69
2023/10/23 07:46:10;;;;;;;48.30;31.88;;;;;;;10.99;100.00;100985.44;7396409;19;20015;-71
2023/10/23 07:48:39;;;;;;;13.38;8.65;;;;;;;11.02;100.00;100993.25;7396512;19;20077;-69
2023/10/23 07:51:08;;;;;;;14.25;6.88;;;;;;;11.04;100.00;100988.84;7397238;19;20011;-70
2023/10/23 07:53:37;;;;;;;10.18;5.47;;;;;;;11.06;100.00;100985.28;7400764;19;20015;-69
2023/10/23 07:56:08;;;;;;;10.23;6.25;;;;;;;11.09;99.86;100989.63;7397883;19;20481;-69
2023/10/23 07:58:37;;;;;;;10.48;6.22;;;;;;;11.13;99.91;100996.53;7395480;19;20010;-68
2023/10/23 08:01:07;;;;;;;10.70;6.15;;;;;;;11.17;99.71;101000.84;7398946;19;20077;-68
2023/10/23 08:03:36;;;;;;;10.52;5.60;;;;;;;11.17;99.75;100989.47;7397320;19;20521;-70
2023/10/23 08:06:06;;;;;;;10.15;6.15;;;;;;;11.24;99.65;100989.28;7398164;19;20011;-69
2023/10/23 08:08:35;;;;;;;12.00;6.90;;;;;;;11.28;99.57;100997.13;7395718;19;20014;-70
2023/10/23 08:11:08;;;;;;;10.75;6.50;;;;;;;11.33;99.32;100995.28;7398376;19;20020;-70
2023/10/23 08:13:38;;;;;;;15.05;9.13;;;;;;;11.38;99.39;100999.50;7397734;19;20011;-69
2023/10/23 08:16:07;;;;;;;11.43;8.05;;;;;;;11.44;99.24;100990.66;7397599;19;20437;-70
2023/10/23 08:18:36;;;;;;;17.77;8.35;;;;;;;11.52;99.15;100993.13;7395879;19;20018;-70
2023/10/23 08:21:11;;;;;;;15.75;8.23;;;;;;;11.60;99.21;100998.19;7395462;19;20021;-69
2023/10/23 08:23:39;;;;;;;14.93;9.82;;;;;;;11.66;98.76;100998.91;7397127;19;20007;-69
2023/10/23 08:26:11;;;;;;;10.68;7.65;;;;;;;11.74;98.54;101004.03;7396820;19;20019;-69
2023/10/23 08:28:40;;;;;;;11.60;6.40;;;;;;;11.81;98.09;100996.88;7395004;19;20494;-68
2023/10/23 08:31:15;;;;;;;11.45;6.03;;;;;;;11.89;97.88;100998.41;7396625;19;20077;-70
2023/10/23 08:33:44;;;;;;;10.35;6.57;;;;;;;11.95;97.61;101000.03;7396571;19;20423;-70
2023/10/23 08:36:12;;;;;;;8.00;5.75;;;;;;;12.00;97.54;101005.22;7395876;19;20078;-70
2023/10/23 08:38:41;;;;;;;13.10;7.00;;;;;;;12.03;97.09;101008.66;7394596;19;20011;-69
2023/10/23 08:41:13;;;;;;;11.98;7.00;;;;;;;12.05;96.36;101008.59;7395592;19;20014;-70
2023/10/23 08:43:42;;;;;;;10.70;6.72;;;;;;;12.10;96.18;101009.34;7397140;19;20074;-70
2023/10/23 08:46:11;;;;;;;11.07;6.38;;;;;;;12.14;95.93;101007.53;7396171;19;20023;-69
2023/10/23 08:48:39;;;;;;;12.93;6.22;;;;;;;12.19;95.70;101006.50;7393444;19;20427;-69
2023/10/23 08:51:16;;;;;;;11.30;6.57;;;;;;;12.24;95.31;101013.44;7395774;19;20015;-67
2023/10/23 08:53:52;;;;;;;7.55;6.28;;;;;;;12.30;95.04;101008.88;7395811;19;20094;-67
2023/10/23 08:56:24;;;;;;;8.27;6.28;;;;;;;12.34;94.72;101005.25;7396375;19;20035;-68
2023/10/23 08:58:59;;;;;;;10.90;6.15;;;;;;;12.39;94.65;101000.75;7393964;19;20388;-66
2023/10/23 09:01:28;;;;;;;11.55;5.85;;;;;;;12.45;94.37;101004.13;7394530;19;20020;-66
2023/10/23 09:03:57;;;;;;;9.93;5.80;;;;;;;12.49;93.97;100997.91;7395803;19;20031;-65
2023/10/23 09:06:25;;;;;;;9.95;5.80;;;;;;;12.53;93.67;101004.81;7395780;19;20018;-65
2023/10/23 09:08:55;;;;;;;8.15;5.45;;;;;;;12.58;93.31;101004.69;7394180;19;20078;-65
2023/10/23 09:11:39;;;;;;;13.18;7.32;;;;;;;12.62;93.05;101007.19;7395428;19;20481;-66
2023/10/23 09:14:08;;;;;;;6.97;4.60;;;;;;;12.66;92.47;100992.19;7394321;19;20019;-67
2023/10/23 09:16:36;;;;;;;8.68;5.68;;;;;;;12.71;91.85;100991.16;7395392;19;20073;-66
2023/10/23 09:19:05;;;;;;;8.02;4.50;;;;;;;12.77;91.33;100994.53;7395081;19;20540;-65
2023/10/23 09:21:34;;;;;;;6.28;3.97;;;;;;;12.81;90.95;100989.13;7393453;19;20006;-65
2023/10/23 09:24:03;;;;;;;6.55;4.10;;;;;;;12.86;90.11;100997.78;7393468;19;20006;-66
2023/10/23 09:26:34;;;;;;;10.43;4.32;;;;;;;12.95;89.99;100998.44;7395453;19;20074;-64
2023/10/23 09:29:03;;;;;;;6.70;4.40;;;;;;;13.02;89.47;100990.31;7394977;19;20515;-65
2023/10/23 09:31:31;;;;;;;5.88;3.53;;;;;;;13.09;89.30;100993.66;7395314;19;20025;-66
2023/10/23 09:34:00;;;;;;;5.88;3.40;;;;;;;13.17;89.12;100996.06;7394157;19;20367;-66
2023/10/23 09:36:31;;;;;;;4.97;3.33;;;;;;;13.22;88.42;100986.25;7393251;19;20023;-65
2023/10/23 09:39:02;;;;;;;7.95;4.85;;;;;;;13.31;88.36;100987.75;7392993;19;20014;-66
2023/10/23 09:41:34;;;;;;;6.82;3.97;;;;;;;13.36;87.95;100985.84;7395447;19;20031;-66
2023/10/23 09:44:04;;;;;;;4.10;3.08;;;;;;;13.44;87.33;100985.66;7395223;19;20015;-65
2023/10/23 09:46:35;;;;;;;4.25;3.25;;;;;;;13.49;86.73;100987.22;7394952;19;20020;-67
2023/10/23 09:49:03;;;;;;;5.15;2.92;;;;;;;13.56;86.70;100987.94;7393495;19;20027;-65
2023/10/23 09:51:36;;;;;;;4.75;3.17;;;;;;;13.64;85.99;100982.44;7395074;19;20507;-64
2023/10/23 09:54:14;;;;;;;4.63;3.92;;;;;;;13.73;85.26;100986.56;7402552;19;20033;-64
2023/10/23 09:56:51;;;;;;;4.15;3.75;;;;;;;13.83;85.01;100975.66;7398881;19;20010;-65
2023/10/23 09:59:20;;;;;;;7.90;3.47;;;;;;;13.94;84.82;100979.72;7398803;19;20011;-64
2023/10/23 10:01:52;;;;;;;3.97;2.65;;;;;;;14.06;84.07;100986.38;7401797;19;20081;-64
2023/10/23 10:04:28;;;;;;;4.82;3.22;;;;;;;14.17;83.44;100971.91;7401525;19;20028;-65
2023/10/23 10:07:02;;;;;;;6.63;3.95;;;;;;;14.30;83.21;100977.66;7398034;19;20021;-64
2023/10/23 10:09:32;;;;;;;8.60;3.90;;;;;;;14.43;82.76;100972.84;7400920;19;20507;-71
2023/10/23 10:12:04;;;;;;;6.95;3.70;;;;;;;14.55;82.46;100973.34;7398555;19;20070;-65
2023/10/23 10:14:34;;;;;;;4.80;3.33;;;;;;;14.63;81.88;100974.78;7400715;19;20058;-65
2023/10/23 10:17:04;;;;;;;7.50;3.35;;;;;;;14.71;81.50;100973.66;7400936;19;20014;-66
2023/10/23 10:19:33;;;;;;;4.90;3.03;;;;;;;14.76;81.22;100972.59;7398367;19;20489;-66
2023/10/23 10:22:10;;;;;;;5.10;4.13;;;;;;;14.79;80.97;100971.63;7401424;19;20014;-65
2023/10/23 10:24:40;;;;;;;4.63;2.55;;;;;;;14.82;80.37;100968.88;7401364;19;20019;-66
2023/10/23 10:27:13;;;;;;;5.45;2.08;;;;;;;14.80;77.53;100966.28;7400380;19;20379;-65
2023/10/23 10:29:42;;;;;;;3.90;1.77;;;;;;;14.85;78.95;100965.25;7398888;19;20022;-68
2023/10/23 10:32:12;;;;;;;3.55;1.83;;;;;;;14.87;78.30;100966.06;7397921;19;20077;-66
2023/10/23 10:34:51;;;;;;;4.78;2.33;;;;;;;14.89;77.46;100966.88;7397599;19;20035;-65
2023/10/23 10:37:19;;;;;;;5.78;3.05;;;;;;;14.92;77.58;100961.47;7398723;19;20372;-65
2023/10/23 10:40:07;;;;;;;3.92;2.35;;;;;;;14.99;76.49;100952.41;7396920;19;20122;-64
2023/10/23 10:42:42;;;;;;;6.00;3.08;;;;;;;15.03;76.15;100954.03;7400010;19;20017;-66
2023/10/23 10:45:20;;;;;;;6.68;2.60;;;;;;;15.07;75.92;100945.06;7400314;19;20110;-65
2023/10/23 10:47:54;;;;;;;2.15;1.85;;;;;;;15.12;75.34;100944.88;7398116;19;20411;-65
2023/10/23 10:50:38;;;;;;;3.05;1.70;;;;;;;15.18;75.11;100949.06;7399691;19;20071;-64
2023/10/23 10:53:07;;;;;;;;;;;;;;;15.21;75.29;100949.81;7399948;19;20017;-65
2023/10/23 10:55:38;;;;;;;3.63;1.80;;;;;;;15.23;75.79;100936.56;7401375;19;19915;-65
2023/10/23 10:58:09;;;;;;;4.88;1.63;;;;;;;15.25;75.03;100940.88;7400565;19;20031;-65
2023/10/23 11:00:38;;;;;;;3.63;2.03;;;;;;;15.26;74.48;100934.66;7397556;19;20007;-65
2023/10/23 11:03:07;;;;;;;16.52;10.35;;;;;;;15.23;74.22;100929.50;7398833;19;20024;-65
2023/10/23 11:05:37;;;;;;;16.40;10.95;;;;;;;15.27;73.93;100940.81;7396251;19;20078;-67
2023/10/23 11:08:07;;;;;;;9.65;4.70;;;;;;;15.29;74.13;100941.59;7397647;19;20018;-66
2023/10/23 11:10:36;;;;;;;7.22;4.03;;;;;;;15.31;74.12;100934.47;7395999;19;20023;-66
2023/10/23 11:13:04;;;;;;;5.50;2.95;;;;;;;15.34;74.12;100934.34;7396252;19;20023;-65
2023/10/23 11:15:35;;;;;;;11.10;6.80;;;;;;;15.38;73.83;100935.09;7397223;19;20082;-66
2023/10/23 11:18:04;;;;;;;6.03;3.38;;;;;;;15.40;73.79;100934.09;7396852;19;20018;-66
2023/10/23 11:20:33;;;;;;;4.80;2.60;;;;;;;15.43;73.92;100933.13;7397388;19;20041;-64
2023/10/23 11:23:04;;;;;;;6.25;3.85;;;;;;;15.46;73.72;100931.22;7399722;19;20021;-64
2023/10/23 11:25:32;;;;;;;7.28;3.22;;;;;;;15.50;73.44;100934.63;7395972;19;20014;-65
2023/10/23 11:28:01;;;;;;;6.60;2.35;;;;;;;15.56;73.10;100928.25;7396672;19;20018;-64
2023/10/23 11:30:30;;;;;;;6.25;2.95;;;;;;;15.58;73.06;100924.63;7398667;19;20032;-65
2023/10/23 11:33:03;;;;;;;6.88;4.30;;;;;;;15.61;72.65;100924.47;7395667;19;20536;-65